createdAt,value
2022-10-02T00:01:32.610Z,2.40
2022-10-02T00:04:01.438Z,2.60
2022-10-02T00:06:44.675Z,2.00
2022-10-02T00:09:20.885Z,3.20
2022-10-02T00:11:51.595Z,2.87
2022-10-02T00:14:23.001Z,2.73
2022-10-02T00:16:54.570Z,2.27
2022-10-02T00:19:22.418Z,2.70
2022-10-02T00:21:55.211Z,2.80
2022-10-02T00:24:30.246Z,2.47
2022-10-02T00:27:06.761Z,2.73
2022-10-02T00:29:51.897Z,2.40
2022-10-02T00:32:34.817Z,2.40
2022-10-02T00:35:17.973Z,2.70
2022-10-02T00:38:14.727Z,3.07
2022-10-02T00:41:01.011Z,3.30
2022-10-02T00:43:34.620Z,2.33
2022-10-02T00:46:08.376Z,2.53
2022-10-02T00:48:36.014Z,2.30
2022-10-02T00:51:45.184Z,2.60
2022-10-02T00:54:15.838Z,2.77
2022-10-02T00:57:13.202Z,2.40
2022-10-02T01:00:11.291Z,3.37
2022-10-02T01:03:07.063Z,2.20
2022-10-02T01:05:35.311Z,2.67
2022-10-02T01:08:02.903Z,2.87
2022-10-02T01:10:31.041Z,2.77
2022-10-02T01:12:59.150Z,2.70
2022-10-02T01:15:33.365Z,2.50
2022-10-02T01:18:04.367Z,3.13
2022-10-02T01:20:42.255Z,2.47
2022-10-02T01:23:31.744Z,3.13
2022-10-02T01:26:00.016Z,2.10
2022-10-02T01:28:28.334Z,2.40
2022-10-02T01:31:10.847Z,2.87
2022-10-02T01:33:41.583Z,2.83
2022-10-02T01:36:14.934Z,1.90
2022-10-02T01:38:44.370Z,2.40
2022-10-02T01:41:12.185Z,2.30
2022-10-02T01:43:44.073Z,2.50
2022-10-02T01:46:41.198Z,2.30
2022-10-02T01:49:30.150Z,2.70
2022-10-02T01:52:15.914Z,2.80
2022-10-02T01:55:13.313Z,2.57
2022-10-02T01:58:13.973Z,2.90
2022-10-02T02:01:04.924Z,2.27
2022-10-02T02:03:58.793Z,2.67
2022-10-02T02:06:35.405Z,2.80
2022-10-02T02:09:21.701Z,3.10
2022-10-02T02:11:59.205Z,2.47
2022-10-02T02:14:35.451Z,2.73
2022-10-02T02:17:35.105Z,2.60
2022-10-02T02:20:12.407Z,3.30
2022-10-02T02:22:45.678Z,2.30
2022-10-02T02:25:17.716Z,2.70
2022-10-02T02:27:50.642Z,3.33
2022-10-02T02:30:19.519Z,2.80
2022-10-02T02:33:01.950Z,2.70
2022-10-02T02:35:47.543Z,2.80
2022-10-02T02:38:30.488Z,2.77
2022-10-02T02:41:03.516Z,2.77
2022-10-02T02:43:51.038Z,2.90
2022-10-02T02:46:31.177Z,2.73
2022-10-02T02:49:11.615Z,2.47
2022-10-02T02:51:46.800Z,2.77
2022-10-02T02:54:30.734Z,2.63
2022-10-02T02:57:00.533Z,2.30
2022-10-02T02:59:31.437Z,2.83
2022-10-02T03:01:59.286Z,2.40
2022-10-02T03:04:26.924Z,2.40
2022-10-02T03:07:00.761Z,2.77
2022-10-02T03:09:32.371Z,2.57
2022-10-02T03:12:09.370Z,2.77
2022-10-02T03:14:42.682Z,3.17
2022-10-02T03:17:32.495Z,2.43
2022-10-02T03:20:18.809Z,2.63
2022-10-02T03:23:25.297Z,2.13
2022-10-02T03:26:08.699Z,3.53
2022-10-02T03:28:56.297Z,2.70
2022-10-02T03:31:28.313Z,2.67
2022-10-02T03:33:59.046Z,3.70
2022-10-02T03:36:27.300Z,2.87
2022-10-02T03:39:20.260Z,2.60
2022-10-02T03:41:46.694Z,2.57
2022-10-02T03:44:14.467Z,3.40
2022-10-02T03:46:42.108Z,2.67
2022-10-02T03:49:12.420Z,3.07
2022-10-02T03:51:40.009Z,2.57
2022-10-02T03:54:17.765Z,2.33
2022-10-02T03:56:51.820Z,2.70
2022-10-02T03:59:33.481Z,2.60
2022-10-02T04:02:06.043Z,2.40
2022-10-02T04:05:05.372Z,3.33
2022-10-02T04:07:39.558Z,2.57
2022-10-02T04:10:13.273Z,2.60
2022-10-02T04:12:49.172Z,2.60
2022-10-02T04:15:42.180Z,3.17
2022-10-02T04:18:22.625Z,3.33
2022-10-02T04:20:59.918Z,2.47
2022-10-02T04:23:35.571Z,3.53
2022-10-02T04:26:17.791Z,3.23
2022-10-02T04:28:54.518Z,3.43
2022-10-02T04:31:27.279Z,2.60
2022-10-02T04:34:00.910Z,2.83
2022-10-02T04:36:40.542Z,2.90
2022-10-02T04:39:37.114Z,2.97
2022-10-02T04:42:52.725Z,3.07
2022-10-02T04:45:28.924Z,3.20
2022-10-02T04:48:05.662Z,3.27
2022-10-02T04:50:53.415Z,3.03
2022-10-02T04:53:39.756Z,2.90
2022-10-02T04:56:33.077Z,3.80
2022-10-02T04:59:08.937Z,3.23
2022-10-02T05:01:55.159Z,3.37
2022-10-02T05:04:55.417Z,2.90
2022-10-02T05:07:50.787Z,2.87
2022-10-02T05:10:39.699Z,2.80
2022-10-02T05:13:32.908Z,2.90
2022-10-02T05:16:21.168Z,3.27
2022-10-02T05:19:05.896Z,2.97
2022-10-02T05:21:51.772Z,3.00
2022-10-02T05:24:35.003Z,3.00
2022-10-02T05:27:20.949Z,2.63
2022-10-02T05:29:57.466Z,2.77
2022-10-02T05:32:52.514Z,3.17
2022-10-02T05:35:25.792Z,3.00
2022-10-02T05:38:08.980Z,2.93
2022-10-02T05:40:56.567Z,2.97
2022-10-02T05:43:53.129Z,2.90
2022-10-02T05:46:31.776Z,2.60
2022-10-02T05:49:07.481Z,2.90
2022-10-02T05:51:59.493Z,2.50
2022-10-02T05:54:30.085Z,2.53
2022-10-02T05:57:22.122Z,2.50
2022-10-02T06:00:27.402Z,2.90
2022-10-02T06:03:36.668Z,2.20
2022-10-02T06:06:22.840Z,3.00
2022-10-02T06:08:58.731Z,2.50
2022-10-02T06:11:29.249Z,2.73
2022-10-02T06:14:10.424Z,2.90
2022-10-02T06:16:49.905Z,2.30
2022-10-02T06:19:31.078Z,2.10
2022-10-02T06:22:35.683Z,2.33
2022-10-02T06:25:12.031Z,2.27
2022-10-02T06:27:46.791Z,2.50
2022-10-02T06:30:19.160Z,2.57
2022-10-02T06:32:48.246Z,2.60
2022-10-02T06:35:30.632Z,2.03
2022-10-02T06:38:13.117Z,2.03
2022-10-02T06:40:51.375Z,2.50
2022-10-02T06:43:59.444Z,1.83
2022-10-02T06:46:49.396Z,2.53
2022-10-02T06:49:48.996Z,1.90
2022-10-02T06:52:38.358Z,1.60
2022-10-02T06:55:35.244Z,2.10
2022-10-02T06:58:27.971Z,2.37
2022-10-02T07:01:09.114Z,2.60
2022-10-02T07:03:49.414Z,1.77
2022-10-02T07:06:24.195Z,1.60
2022-10-02T07:09:09.312Z,2.10
2022-10-02T07:12:06.456Z,1.60
2022-10-02T07:14:46.117Z,1.43
2022-10-02T07:17:33.637Z,1.90
2022-10-02T07:20:45.712Z,1.40
2022-10-02T07:23:43.857Z,1.60
2022-10-02T07:26:36.087Z,1.53
2022-10-02T07:29:06.529Z,1.80
2022-10-02T07:31:56.559Z,1.97
2022-10-02T07:34:30.171Z,1.70
2022-10-02T07:37:00.722Z,2.00
2022-10-02T07:39:40.531Z,2.00
2022-10-02T07:42:19.016Z,1.70
2022-10-02T07:45:17.324Z,2.30
2022-10-02T07:47:59.239Z,2.20
2022-10-02T07:50:36.235Z,2.17
2022-10-02T07:53:24.162Z,2.40
2022-10-02T07:55:54.780Z,2.10
2022-10-02T07:58:40.399Z,2.30
2022-10-02T08:01:23.331Z,2.10
2022-10-02T08:04:26.704Z,1.93
2022-10-02T08:07:00.516Z,2.63
2022-10-02T08:09:45.684Z,2.00
2022-10-02T08:12:28.867Z,1.90
2022-10-02T08:14:58.926Z,2.70
2022-10-02T08:17:36.085Z,1.93
2022-10-02T08:20:16.132Z,2.63
2022-10-02T08:22:48.047Z,1.83
2022-10-02T08:25:25.193Z,1.47
2022-10-02T08:28:25.496Z,1.40
2022-10-02T08:31:00.769Z,1.80
2022-10-02T08:33:32.269Z,1.70
2022-10-02T08:36:38.006Z,1.57
2022-10-02T08:39:28.431Z,1.70
2022-10-02T08:42:21.907Z,1.90
2022-10-02T08:44:58.418Z,2.23
2022-10-02T08:47:35.304Z,2.37
2022-10-02T08:50:44.173Z,2.10
2022-10-02T08:53:30.511Z,1.83
2022-10-02T08:56:22.097Z,1.40
2022-10-02T08:59:25.885Z,1.60
2022-10-02T09:01:59.574Z,1.77
2022-10-02T09:05:02.730Z,2.30
2022-10-02T09:08:03.403Z,2.00
2022-10-02T09:11:08.670Z,1.67
2022-10-02T09:13:54.417Z,1.90
2022-10-02T09:16:32.997Z,2.13
2022-10-02T09:19:03.047Z,3.50
2022-10-02T09:21:36.702Z,2.40
2022-10-02T09:24:36.090Z,2.30
2022-10-02T09:27:12.528Z,1.70
2022-10-02T09:30:14.585Z,1.83
2022-10-02T09:33:23.538Z,1.70
2022-10-02T09:36:09.103Z,1.80
2022-10-02T09:39:11.489Z,1.60
2022-10-02T09:41:50.901Z,2.40
2022-10-02T09:45:01.456Z,1.90
2022-10-02T09:47:51.559Z,1.87
2022-10-02T09:50:53.538Z,2.00
2022-10-02T09:53:46.838Z,2.00
2022-10-02T09:56:39.319Z,1.50
2022-10-02T09:59:38.262Z,1.60
2022-10-02T10:02:25.930Z,1.90
2022-10-02T10:05:13.012Z,1.60
2022-10-02T10:07:49.162Z,2.10
2022-10-02T10:10:42.402Z,2.20
2022-10-02T10:13:09.898Z,1.80
2022-10-02T10:16:08.754Z,2.43
2022-10-02T10:19:02.358Z,2.53
2022-10-02T10:22:00.747Z,1.80
2022-10-02T10:25:05.540Z,1.60
2022-10-02T10:28:06.205Z,1.30
2022-10-02T10:30:52.716Z,1.17
2022-10-02T10:33:47.886Z,1.00
2022-10-02T10:36:56.307Z,0.83
2022-10-02T10:39:35.763Z,1.03
2022-10-02T10:42:56.108Z,2.00
2022-10-02T10:45:39.132Z,1.40
2022-10-02T10:48:47.103Z,1.40
2022-10-02T10:51:26.098Z,1.40
2022-10-02T10:54:18.867Z,1.60
2022-10-02T10:56:55.244Z,1.30
2022-10-02T10:59:35.240Z,1.20
2022-10-02T11:02:22.114Z,1.30
2022-10-02T11:05:08.398Z,1.10
2022-10-02T11:08:06.238Z,1.00
2022-10-02T11:11:02.114Z,1.30
2022-10-02T11:13:44.105Z,1.20
2022-10-02T11:16:31.301Z,0.90
2022-10-02T11:19:07.648Z,1.23
2022-10-02T11:21:56.382Z,1.30
2022-10-02T11:24:45.035Z,1.30
2022-10-02T11:27:57.948Z,0.97
2022-10-02T11:30:32.892Z,1.20
2022-10-02T11:33:30.002Z,1.07
2022-10-02T11:36:19.209Z,1.20
2022-10-02T11:39:20.991Z,1.10
2022-10-02T11:42:16.746Z,1.27
2022-10-02T11:45:05.959Z,1.80
2022-10-02T11:47:55.081Z,1.20
2022-10-02T11:50:30.434Z,1.27
2022-10-02T11:53:07.128Z,0.90
2022-10-02T11:55:53.936Z,1.20
2022-10-02T11:58:41.775Z,1.20
2022-10-02T12:01:21.910Z,1.30
2022-10-02T12:04:18.972Z,1.30
2022-10-02T12:07:17.115Z,1.40
2022-10-02T12:10:00.447Z,1.23
2022-10-02T12:12:36.876Z,1.40
2022-10-02T12:15:13.324Z,1.20
2022-10-02T12:18:04.079Z,1.17
2022-10-02T12:21:08.492Z,1.50
2022-10-02T12:24:13.991Z,1.33
2022-10-02T12:27:02.651Z,1.00
2022-10-02T12:29:54.181Z,1.20
2022-10-02T12:32:43.598Z,0.90
2022-10-02T12:35:31.396Z,1.40
2022-10-02T12:38:37.151Z,2.30
2022-10-02T12:41:09.652Z,1.10
2022-10-02T12:43:57.853Z,0.80
2022-10-02T12:46:28.988Z,1.10
2022-10-02T12:49:28.283Z,0.97
2022-10-02T12:52:16.431Z,0.80
2022-10-02T12:55:18.388Z,0.90
2022-10-02T12:58:03.875Z,0.73
2022-10-02T13:01:00.811Z,1.10
2022-10-02T13:04:16.476Z,0.70
2022-10-02T13:07:19.690Z,0.90
2022-10-02T13:10:03.715Z,0.88
2022-10-02T13:12:54.010Z,0.98
2022-10-02T13:15:27.310Z,0.88
2022-10-02T13:18:25.437Z,0.68
2022-10-02T13:21:11.815Z,0.80
2022-10-02T13:23:42.232Z,0.95
2022-10-02T13:26:33.245Z,1.02
2022-10-02T13:29:03.803Z,0.90
2022-10-02T13:31:43.949Z,0.80
2022-10-02T13:34:37.608Z,0.90
2022-10-02T13:37:26.085Z,0.73
2022-10-02T13:40:24.002Z,0.90
2022-10-02T13:43:25.688Z,1.10
2022-10-02T13:45:56.067Z,1.10
2022-10-02T13:48:39.037Z,0.97
2022-10-02T13:51:09.073Z,1.23
2022-10-02T13:53:53.487Z,1.50
2022-10-02T13:56:24.470Z,1.50
2022-10-02T13:59:41.674Z,1.50
2022-10-02T14:02:17.305Z,3.40
2022-10-02T14:04:47.812Z,2.70
2022-10-02T14:07:18.418Z,2.73
2022-10-02T14:10:07.939Z,2.10
2022-10-02T14:13:16.093Z,2.50
2022-10-02T14:15:59.178Z,1.80
2022-10-02T14:18:55.897Z,2.43
2022-10-02T14:21:35.546Z,1.70
2022-10-02T14:24:54.698Z,1.00
2022-10-02T14:27:48.086Z,1.20
2022-10-02T14:30:37.063Z,0.80
2022-10-02T14:33:27.646Z,0.60
2022-10-02T14:36:20.897Z,0.60
2022-10-02T14:38:54.481Z,1.63
2022-10-02T14:41:52.299Z,21.43
2022-10-02T14:44:28.463Z,2.30
2022-10-02T14:47:17.730Z,1.90
2022-10-02T14:49:53.708Z,2.00
2022-10-02T14:52:27.062Z,1.80
2022-10-02T14:55:01.861Z,1.23
2022-10-02T14:58:09.759Z,1.23
2022-10-02T15:00:49.503Z,1.47
2022-10-02T15:03:47.183Z,2.50
2022-10-02T15:06:26.215Z,1.70
2022-10-02T15:09:00.090Z,2.00
2022-10-02T15:11:37.202Z,1.87
2022-10-02T15:14:15.701Z,1.53
2022-10-02T15:17:17.952Z,1.23
2022-10-02T15:20:05.413Z,1.80
2022-10-02T15:22:45.274Z,1.50
2022-10-02T15:25:26.380Z,1.23
2022-10-02T15:28:36.287Z,1.07
2022-10-02T15:31:31.502Z,2.03
2022-10-02T15:34:20.952Z,1.60
2022-10-02T15:37:01.254Z,2.30
2022-10-02T15:39:43.515Z,2.20
2022-10-02T15:42:16.177Z,2.33
2022-10-02T15:45:07.887Z,1.90
2022-10-02T15:48:00.954Z,1.90
2022-10-02T15:50:52.537Z,1.83
2022-10-02T15:53:43.108Z,1.40
2022-10-02T15:56:21.089Z,1.50
2022-10-02T15:59:09.274Z,1.77
2022-10-02T16:02:24.794Z,6.73
2022-10-02T16:05:05.679Z,3.20
2022-10-02T16:07:54.732Z,2.20
2022-10-02T16:10:42.165Z,6.50
2022-10-02T16:13:36.386Z,7.30
2022-10-02T16:16:25.909Z,4.20
2022-10-02T16:19:02.053Z,4.23
2022-10-02T16:21:51.015Z,3.03
2022-10-02T16:24:48.280Z,4.60
2022-10-02T16:27:40.088Z,6.70
2022-10-02T16:30:16.113Z,7.83
2022-10-02T16:33:11.193Z,4.17
2022-10-02T16:35:54.795Z,5.60
2022-10-02T16:38:33.310Z,6.03
2022-10-02T16:41:22.118Z,5.73
2022-10-02T16:44:09.804Z,5.87
2022-10-02T16:46:44.070Z,11.70
2022-10-02T16:49:11.574Z,5.57
2022-10-02T16:52:03.197Z,5.10
2022-10-02T16:54:58.822Z,6.77
2022-10-02T16:57:51.856Z,7.13
2022-10-02T17:00:22.776Z,5.23
2022-10-02T17:03:12.120Z,6.93
2022-10-02T17:05:40.497Z,6.33
2022-10-02T17:08:09.657Z,3.63
2022-10-02T17:10:53.144Z,3.30
2022-10-02T17:13:27.358Z,3.77
2022-10-02T17:16:23.546Z,6.13
2022-10-02T17:19:17.023Z,2.70
2022-10-02T17:21:53.841Z,3.30
2022-10-02T17:24:40.173Z,4.63
2022-10-02T17:27:14.813Z,5.43
2022-10-02T17:30:17.157Z,4.40
2022-10-02T17:32:45.975Z,5.77
2022-10-02T17:35:23.774Z,4.23
2022-10-02T17:38:06.570Z,2.93
2022-10-02T17:40:54.210Z,2.80
2022-10-02T17:43:37.181Z,3.20
2022-10-02T17:46:49.765Z,2.77
2022-10-02T17:49:26.151Z,2.77
2022-10-02T17:51:56.646Z,2.80
2022-10-02T17:55:11.200Z,2.57
2022-10-02T17:57:44.625Z,2.93
2022-10-02T18:00:12.255Z,2.77
2022-10-02T18:02:51.826Z,2.50
2022-10-02T18:05:29.393Z,3.07
2022-10-02T18:08:08.004Z,2.87
2022-10-02T18:11:01.724Z,2.67
2022-10-02T18:13:39.324Z,3.37
2022-10-02T18:16:40.729Z,3.50
2022-10-02T18:19:29.667Z,3.10
2022-10-02T18:22:21.846Z,3.70
2022-10-02T18:25:27.533Z,3.20
2022-10-02T18:27:55.753Z,3.50
2022-10-02T18:30:30.325Z,3.70
2022-10-02T18:33:31.592Z,3.40
2022-10-02T18:36:21.621Z,3.77
2022-10-02T18:39:06.128Z,4.50
2022-10-02T18:41:42.551Z,4.67
2022-10-02T18:44:16.165Z,5.50
2022-10-02T18:46:49.706Z,5.30
2022-10-02T18:49:25.031Z,5.37
2022-10-02T18:52:10.230Z,4.83
2022-10-02T18:55:10.072Z,3.80
2022-10-02T18:57:45.679Z,4.03
2022-10-02T19:00:22.026Z,4.30
2022-10-02T19:03:08.477Z,4.40
2022-10-02T19:05:53.547Z,4.53
2022-10-02T19:08:27.422Z,4.60
2022-10-02T19:10:55.180Z,4.70
2022-10-02T19:13:29.866Z,4.47
2022-10-02T19:15:58.620Z,4.80
2022-10-02T19:18:28.326Z,5.20
2022-10-02T19:21:11.309Z,5.50
2022-10-02T19:23:48.722Z,5.67
2022-10-02T19:26:19.874Z,5.80
2022-10-02T19:28:58.829Z,5.23
2022-10-02T19:31:29.837Z,5.97
2022-10-02T19:34:02.365Z,5.70
2022-10-02T19:36:38.302Z,4.77
2022-10-02T19:39:17.853Z,5.13
2022-10-02T19:41:45.818Z,4.73
2022-10-02T19:44:41.694Z,5.17
2022-10-02T19:47:31.809Z,4.73
2022-10-02T19:50:01.656Z,5.13
2022-10-02T19:52:46.880Z,5.30
2022-10-02T19:55:23.003Z,4.43
2022-10-02T19:57:54.160Z,4.87
2022-10-02T20:00:22.579Z,4.20
2022-10-02T20:02:57.120Z,4.80
2022-10-02T20:05:28.223Z,4.17
2022-10-02T20:08:12.558Z,4.40
2022-10-02T20:10:57.967Z,3.90
2022-10-02T20:13:32.389Z,4.33
2022-10-02T20:16:44.785Z,4.27
2022-10-02T20:19:23.666Z,4.50
2022-10-02T20:21:56.016Z,4.43
2022-10-02T20:24:26.459Z,4.60
2022-10-02T20:26:58.772Z,4.70
2022-10-02T20:29:36.786Z,4.67
2022-10-02T20:32:16.583Z,4.37
2022-10-02T20:34:53.751Z,4.63
2022-10-02T20:37:29.492Z,4.87
2022-10-02T20:40:29.843Z,5.07
2022-10-02T20:43:00.466Z,4.23
2022-10-02T20:45:41.994Z,4.33
2022-10-02T20:49:03.036Z,5.37
2022-10-02T20:51:48.254Z,4.43
2022-10-02T20:54:48.357Z,5.13
2022-10-02T21:00:27.256Z,4.90
2022-10-02T21:03:39.784Z,3.97
2022-10-02T21:06:38.564Z,4.63
2022-10-02T21:09:29.249Z,4.77
2022-10-02T21:12:15.733Z,4.77
2022-10-02T21:14:53.254Z,5.00
2022-10-02T21:17:43.034Z,4.80
2022-10-02T21:21:05.280Z,4.87
2022-10-02T21:23:39.827Z,5.10
2022-10-02T21:26:27.356Z,5.40
2022-10-02T21:29:26.126Z,5.50
2022-10-02T21:32:05.879Z,5.70
2022-10-02T21:34:53.736Z,5.53
2022-10-02T21:37:45.603Z,6.13
2022-10-02T21:40:50.847Z,5.90
2022-10-02T21:43:48.998Z,5.40
2022-10-02T21:46:42.461Z,5.87
2022-10-02T21:49:39.103Z,6.53
2022-10-02T21:52:15.819Z,6.80
2022-10-02T21:54:46.785Z,6.00
2022-10-02T21:57:45.292Z,6.37
2022-10-02T22:00:24.411Z,6.10
2022-10-02T22:03:13.658Z,6.63
2022-10-02T22:05:44.125Z,6.50
2022-10-02T22:08:31.268Z,6.27
2022-10-02T22:11:13.161Z,7.03
2022-10-02T22:13:43.696Z,7.00
2022-10-02T22:16:24.418Z,7.43
2022-10-02T22:19:01.277Z,6.70
2022-10-02T22:21:53.219Z,6.87
2022-10-02T22:24:44.153Z,6.93
2022-10-02T22:27:17.667Z,7.53
2022-10-02T22:29:52.035Z,7.10
2022-10-02T22:33:12.639Z,7.47
2022-10-02T22:36:13.266Z,7.00
2022-10-02T22:38:50.681Z,7.00
2022-10-02T22:41:21.115Z,7.40
2022-10-02T22:44:16.692Z,7.40
2022-10-02T22:46:52.840Z,6.87
2022-10-02T22:49:30.287Z,7.30
2022-10-02T22:52:16.453Z,7.87
2022-10-02T22:55:16.690Z,7.93
2022-10-02T22:57:47.086Z,7.73
2022-10-02T23:00:25.159Z,8.10
2022-10-02T23:03:04.564Z,8.10
2022-10-02T23:05:46.865Z,7.27
2022-10-02T23:08:45.208Z,7.77
2022-10-02T23:11:22.340Z,7.90
2022-10-02T23:14:05.489Z,7.63
2022-10-02T23:16:44.929Z,8.13
2022-10-02T23:19:23.103Z,8.50
2022-10-02T23:21:56.620Z,8.80
2022-10-02T23:24:39.736Z,10.27
2022-10-02T23:27:16.488Z,9.23
2022-10-02T23:29:53.288Z,9.33
2022-10-02T23:32:46.648Z,9.13
2022-10-02T23:35:25.759Z,9.60
2022-10-02T23:37:56.091Z,9.70
2022-10-02T23:40:43.556Z,8.27
2022-10-02T23:43:17.013Z,9.20
2022-10-02T23:45:57.795Z,8.17
2022-10-02T23:48:27.280Z,8.83
2022-10-02T23:51:23.860Z,8.50
2022-10-02T23:54:10.573Z,9.70
2022-10-02T23:57:01.010Z,9.13
2022-10-02T23:59:45.875Z,9.27
